createdAt,value
2019-01-18T00:02:20.329Z,67.90
2019-01-18T00:06:39.553Z,67.90
2019-01-18T00:10:57.661Z,68.30
2019-01-18T00:15:15.933Z,68.40
2019-01-18T00:19:34.084Z,68.50
2019-01-18T00:23:52.360Z,69.30
2019-01-18T00:28:10.939Z,68.50
2019-01-18T00:32:29.329Z,68.90
2019-01-18T00:36:47.657Z,68.60
2019-01-18T00:41:06.160Z,68.50
2019-01-18T00:45:24.680Z,68.50
2019-01-18T00:49:42.843Z,68.50
2019-01-18T00:54:01.023Z,68.60
2019-01-18T00:58:19.751Z,68.70
2019-01-18T01:02:38.013Z,68.50
2019-01-18T01:06:56.933Z,69.20
2019-01-18T01:11:15.076Z,69.20
2019-01-18T01:15:33.774Z,69.60
2019-01-18T01:19:52.255Z,70.00
2019-01-18T01:24:10.730Z,69.70
2019-01-18T01:28:28.893Z,69.40
2019-01-18T01:32:47.077Z,69.30
2019-01-18T01:37:05.197Z,69.50
2019-01-18T01:41:23.645Z,69.40
2019-01-18T01:45:41.779Z,69.10
2019-01-18T01:50:00.247Z,69.10
2019-01-18T01:54:18.524Z,69.40
2019-01-18T01:58:36.444Z,69.20
2019-01-18T02:02:54.688Z,69.40
2019-01-18T02:07:12.822Z,69.20
2019-01-18T02:11:30.992Z,69.30
2019-01-18T02:15:49.090Z,69.50
2019-01-18T02:20:08.842Z,69.10
2019-01-18T02:24:26.860Z,68.90
2019-01-18T02:28:45.543Z,68.60
2019-01-18T02:33:03.739Z,68.70
2019-01-18T02:37:21.860Z,67.50
2019-01-18T02:41:39.995Z,68.00
2019-01-18T02:45:58.131Z,68.40
2019-01-18T02:50:17.040Z,67.80
2019-01-18T02:54:35.436Z,68.40
2019-01-18T02:58:53.654Z,68.60
2019-01-18T03:03:11.922Z,68.50
2019-01-18T03:07:29.954Z,67.90
2019-01-18T03:11:48.146Z,68.10
2019-01-18T03:16:06.240Z,68.40
2019-01-18T03:20:24.453Z,67.20
2019-01-18T03:24:42.653Z,68.00
2019-01-18T03:29:01.148Z,68.00
2019-01-18T03:33:19.288Z,68.50
2019-01-18T03:37:37.416Z,68.20
2019-01-18T03:41:55.912Z,68.30
2019-01-18T03:46:14.189Z,69.10
2019-01-18T03:50:32.634Z,68.60
2019-01-18T03:54:50.788Z,68.30
2019-01-18T03:59:09.070Z,68.80
2019-01-18T04:03:27.243Z,68.90
2019-01-18T04:07:45.958Z,69.00
2019-01-18T04:12:04.413Z,69.20
2019-01-18T04:16:23.590Z,69.00
2019-01-18T04:20:41.721Z,69.00
2019-01-18T04:25:00.263Z,69.30
2019-01-18T04:29:18.385Z,69.30
2019-01-18T04:33:36.524Z,68.90
2019-01-18T04:37:55.119Z,68.60
2019-01-18T04:42:14.580Z,68.80
2019-01-18T04:46:33.660Z,69.10
2019-01-18T04:50:52.246Z,69.00
2019-01-18T04:55:11.343Z,68.90
2019-01-18T04:59:30.481Z,69.20
2019-01-18T05:03:48.509Z,68.90
2019-01-18T05:08:06.655Z,68.70
2019-01-18T05:12:24.812Z,69.50
2019-01-18T05:16:43.179Z,68.20
2019-01-18T05:21:01.973Z,68.80
2019-01-18T05:25:20.661Z,68.60
2019-01-18T05:29:38.849Z,68.70
2019-01-18T05:33:57.070Z,68.60
2019-01-18T05:38:15.106Z,68.80
2019-01-18T05:42:33.560Z,68.00
2019-01-18T05:46:51.764Z,68.00
2019-01-18T05:51:10.025Z,68.30
2019-01-18T05:55:28.525Z,68.60
2019-01-18T05:59:46.626Z,68.10
2019-01-18T06:04:05.067Z,68.60
2019-01-18T06:08:23.129Z,67.90
2019-01-18T06:12:41.439Z,67.90
2019-01-18T06:16:59.583Z,68.10
2019-01-18T06:21:17.954Z,68.20
2019-01-18T06:25:37.613Z,68.20
2019-01-18T06:29:56.172Z,68.20
2019-01-18T06:34:14.220Z,68.30
2019-01-18T06:38:32.373Z,68.40
2019-01-18T06:42:51.585Z,68.40
2019-01-18T06:47:09.740Z,68.30
2019-01-18T06:51:27.867Z,68.60
2019-01-18T06:55:46.363Z,68.80
2019-01-18T07:00:05.275Z,68.90
2019-01-18T07:04:23.418Z,69.00
2019-01-18T07:08:41.969Z,69.40
2019-01-18T07:13:00.160Z,69.50
2019-01-18T07:17:18.243Z,69.60
2019-01-18T07:21:36.330Z,69.60
2019-01-18T07:25:54.516Z,69.40
2019-01-18T07:30:18.706Z,69.60
2019-01-18T07:34:36.830Z,70.00
2019-01-18T07:39:00.473Z,70.00
2019-01-18T07:43:15.063Z,70.00
2019-01-18T07:47:33.621Z,69.70
2019-01-18T07:51:51.780Z,69.50
2019-01-18T07:56:10.327Z,69.50
2019-01-18T08:00:30.582Z,69.50
2019-01-18T08:04:48.825Z,69.60
2019-01-18T08:09:09.482Z,69.70
2019-01-18T08:13:27.666Z,69.70
2019-01-18T08:17:45.858Z,69.70
2019-01-18T08:22:03.955Z,69.80
2019-01-18T08:26:22.038Z,70.10
2019-01-18T08:30:40.469Z,70.40
2019-01-18T08:34:58.646Z,70.50
2019-01-18T08:39:17.716Z,70.40
2019-01-18T08:43:35.973Z,70.40
2019-01-18T08:47:54.120Z,70.70
2019-01-18T08:52:13.953Z,71.20
2019-01-18T08:56:32.147Z,71.80
2019-01-18T09:00:51.666Z,71.80
2019-01-18T09:05:13.789Z,71.80
2019-01-18T09:09:32.109Z,71.50
2019-01-18T09:13:50.699Z,71.30
2019-01-18T09:18:09.173Z,70.90
2019-01-18T09:22:27.724Z,71.20
2019-01-18T09:26:47.251Z,71.20
2019-01-18T09:31:05.561Z,71.40
2019-01-18T09:35:25.153Z,71.30
2019-01-18T09:39:43.277Z,71.00
2019-01-18T09:44:01.774Z,71.30
2019-01-18T09:48:19.880Z,71.70
2019-01-18T09:52:38.032Z,71.50
2019-01-18T09:56:56.319Z,71.20
2019-01-18T10:01:14.540Z,71.20
2019-01-18T10:05:33.729Z,71.40
2019-01-18T10:09:53.451Z,71.70
2019-01-18T10:14:11.628Z,71.50
2019-01-18T10:18:29.834Z,72.00
2019-01-18T10:22:49.408Z,72.40
2019-01-18T10:27:07.457Z,72.80
2019-01-18T10:31:25.617Z,73.00
2019-01-18T10:35:43.921Z,73.20
2019-01-18T10:40:02.088Z,73.00
2019-01-18T10:44:20.198Z,72.70
2019-01-18T10:48:38.273Z,72.90
2019-01-18T10:52:56.536Z,73.10
2019-01-18T10:57:15.129Z,73.20
2019-01-18T11:01:34.837Z,72.90
2019-01-18T11:05:53.852Z,73.00
2019-01-18T11:10:12.602Z,74.10
2019-01-18T11:14:31.845Z,73.90
2019-01-18T11:18:50.602Z,76.10
2019-01-18T11:23:10.750Z,75.50
2019-01-18T11:27:31.603Z,74.40
2019-01-18T11:31:50.324Z,73.80
2019-01-18T11:36:09.076Z,73.00
2019-01-18T11:40:27.680Z,72.50
2019-01-18T11:45:05.985Z,72.10
2019-01-18T11:49:26.201Z,71.70
2019-01-18T11:53:45.071Z,73.00
2019-01-18T11:58:03.284Z,72.00
2019-01-18T12:02:22.290Z,71.80
2019-01-18T12:06:40.370Z,71.80
2019-01-18T12:10:58.497Z,72.10
2019-01-18T12:15:17.057Z,72.20
2019-01-18T12:19:35.727Z,72.50
2019-01-18T12:23:53.783Z,72.70
2019-01-18T12:28:12.502Z,72.50
2019-01-18T12:32:31.309Z,72.60
2019-01-18T12:36:49.785Z,72.40
2019-01-18T12:41:08.142Z,71.40
2019-01-18T12:45:27.457Z,71.00
2019-01-18T12:49:45.742Z,70.70
2019-01-18T12:54:03.782Z,70.60
2019-01-18T12:58:22.279Z,70.50
2019-01-18T13:02:40.868Z,70.40
2019-01-18T13:06:59.163Z,70.50
2019-01-18T13:11:18.272Z,70.40
2019-01-18T13:16:28.862Z,70.20
2019-01-18T13:20:47.045Z,70.00
2019-01-18T13:25:06.939Z,70.20
2019-01-18T13:29:25.242Z,70.50
2019-01-18T13:33:44.079Z,71.10
2019-01-18T13:38:02.877Z,71.40
2019-01-18T13:53:55.471Z,72.10
2019-01-18T13:58:14.046Z,72.00
2019-01-18T14:02:32.373Z,72.00
2019-01-18T14:06:50.544Z,71.90
2019-01-18T14:11:16.313Z,71.60
2019-01-18T14:15:35.006Z,71.40
2019-01-18T14:19:55.094Z,71.70
2019-01-18T14:24:13.467Z,71.50
2019-01-18T14:28:31.791Z,71.50
2019-01-18T14:32:55.378Z,71.00
2019-01-18T14:37:09.522Z,71.20
2019-01-18T14:41:31.159Z,71.10
2019-01-18T14:45:47.604Z,70.80
2019-01-18T14:50:07.364Z,70.50
2019-01-18T14:54:25.499Z,70.50
2019-01-18T14:58:43.910Z,70.40
2019-01-18T15:03:03.052Z,70.30
2019-01-18T15:07:22.449Z,70.10
2019-01-18T15:11:40.617Z,70.10
2019-01-18T15:15:59.186Z,69.90
2019-01-18T15:20:23.825Z,69.70
2019-01-18T15:24:41.947Z,70.30
2019-01-18T15:29:00.232Z,69.10
2019-01-18T15:33:18.417Z,68.70
2019-01-18T15:37:36.915Z,68.60
2019-01-18T15:41:55.024Z,68.30
2019-01-18T15:46:13.140Z,68.20
2019-01-18T15:50:34.574Z,68.10
2019-01-18T15:54:53.579Z,68.00
2019-01-18T15:59:11.738Z,67.70
2019-01-18T16:03:29.850Z,67.50
2019-01-18T16:07:47.860Z,67.30
2019-01-18T16:12:06.213Z,67.10
2019-01-18T16:16:43.902Z,67.20
2019-01-18T16:21:02.658Z,67.30
2019-01-18T16:25:27.990Z,67.50
2019-01-18T16:29:46.462Z,67.40
2019-01-18T16:34:04.643Z,67.50
2019-01-18T16:38:23.148Z,67.40
2019-01-18T16:42:41.584Z,67.50
2019-01-18T16:46:59.877Z,67.50
2019-01-18T16:51:18.388Z,67.50
2019-01-18T16:55:36.591Z,67.60
2019-01-18T16:59:56.426Z,68.40
2019-01-18T17:04:15.380Z,68.40
2019-01-18T17:08:33.527Z,67.90
2019-01-18T17:12:51.666Z,67.70
2019-01-18T17:17:09.847Z,67.80
2019-01-18T17:21:28.000Z,67.90
2019-01-18T17:25:46.562Z,67.90
2019-01-18T17:30:06.163Z,68.00
2019-01-18T17:34:24.345Z,68.10
2019-01-18T17:39:20.234Z,68.10
2019-01-18T17:44:31.434Z,68.40
2019-01-18T17:49:27.182Z,68.50
2019-01-18T17:54:36.037Z,68.60
2019-01-18T17:59:57.059Z,68.70
2019-01-18T18:05:38.627Z,68.60
2019-01-18T18:10:19.691Z,68.70
2019-01-18T18:15:53.899Z,68.90
2019-01-18T18:21:21.800Z,69.00
2019-01-18T18:26:43.486Z,69.00
2019-01-18T18:31:26.546Z,68.80
2019-01-18T18:36:57.320Z,68.80
2019-01-18T18:42:48.971Z,68.80
2019-01-18T18:47:52.929Z,68.80
2019-01-18T18:52:53.382Z,68.70
2019-01-18T18:58:27.680Z,68.70
2019-01-18T19:03:57.245Z,68.80
2019-01-18T19:08:48.359Z,68.70
2019-01-18T19:14:18.678Z,68.80
2019-01-18T19:19:58.964Z,68.70
2019-01-18T19:25:22.613Z,68.90
2019-01-18T19:30:25.100Z,68.60
2019-01-18T19:35:29.051Z,68.70
2019-01-18T19:40:27.619Z,68.70
2019-01-18T19:45:38.352Z,68.80
2019-01-18T19:50:51.208Z,68.90
2019-01-18T19:55:53.126Z,68.70
2019-01-18T20:01:05.507Z,68.30
2019-01-18T20:06:05.299Z,68.50
2019-01-18T20:11:34.937Z,68.30
2019-01-18T20:16:23.353Z,68.20
2019-01-18T20:21:14.677Z,68.10
2019-01-18T20:26:21.387Z,67.50
2019-01-18T20:31:40.919Z,68.10
2019-01-18T20:36:57.670Z,68.10
2019-01-18T20:41:50.808Z,68.00
2019-01-18T20:47:21.583Z,67.90
2019-01-18T20:52:02.456Z,67.90
2019-01-18T20:57:09.659Z,67.80
2019-01-18T21:02:20.586Z,68.00
2019-01-18T21:07:15.005Z,67.90
2019-01-18T21:12:09.953Z,68.00
2019-01-18T21:17:25.270Z,68.00
2019-01-18T21:22:59.443Z,67.90
2019-01-18T21:28:13.672Z,67.90
2019-01-18T21:33:50.675Z,67.90
2019-01-18T21:39:48.421Z,68.10
2019-01-18T21:45:04.034Z,68.20
2019-01-18T21:50:20.251Z,68.20
2019-01-18T21:55:20.137Z,68.30
2019-01-18T22:00:24.717Z,68.60
2019-01-18T22:04:51.842Z,68.70
2019-01-18T22:09:47.265Z,68.90
2019-01-18T22:14:30.078Z,69.00
2019-01-18T22:19:43.561Z,68.90
2019-01-18T22:24:51.649Z,68.80
2019-01-18T22:29:47.873Z,68.70
2019-01-18T22:34:55.735Z,68.70
2019-01-18T22:40:26.869Z,68.70
2019-01-18T22:45:26.686Z,68.40
2019-01-18T22:50:30.846Z,68.20
2019-01-18T22:55:15.259Z,68.20
2019-01-18T23:00:57.107Z,68.10
2019-01-18T23:06:20.304Z,68.20
2019-01-18T23:11:26.835Z,68.10
2019-01-18T23:16:34.851Z,68.00
2019-01-18T23:22:00.794Z,68.10
2019-01-18T23:27:03.739Z,68.00
2019-01-18T23:32:09.050Z,67.80
2019-01-18T23:37:06.941Z,68.10
2019-01-18T23:42:27.681Z,68.10
2019-01-18T23:47:58.586Z,68.20
2019-01-18T23:53:18.540Z,68.20
2019-01-18T23:58:10.752Z,68.10
